sensor_id;sensor_type;location;lat;lon;timestamp;temperature;humidity
45096;DHT22;30858;51.108;8.068;2022-08-30T00:02:05;14.00;99.90
45096;DHT22;30858;51.108;8.068;2022-08-30T00:04:31;14.00;99.90
45096;DHT22;30858;51.108;8.068;2022-08-30T00:06:56;14.00;99.90
45096;DHT22;30858;51.108;8.068;2022-08-30T00:09:22;14.00;99.90
45096;DHT22;30858;51.108;8.068;2022-08-30T00:11:48;13.90;99.90
45096;DHT22;30858;51.108;8.068;2022-08-30T00:14:16;13.90;99.90
45096;DHT22;30858;51.108;8.068;2022-08-30T00:16:41;14.00;99.90
45096;DHT22;30858;51.108;8.068;2022-08-30T00:19:07;14.00;99.90
45096;DHT22;30858;51.108;8.068;2022-08-30T00:21:32;13.90;99.90
45096;DHT22;30858;51.108;8.068;2022-08-30T00:23:58;13.90;99.90
45096;DHT22;30858;51.108;8.068;2022-08-30T00:26:23;13.80;99.90
45096;DHT22;30858;51.108;8.068;2022-08-30T00:28:49;13.80;99.90
45096;DHT22;30858;51.108;8.068;2022-08-30T00:31:15;13.80;99.90
45096;DHT22;30858;51.108;8.068;2022-08-30T00:33:40;13.70;99.90
45096;DHT22;30858;51.108;8.068;2022-08-30T00:36:06;13.70;99.90
45096;DHT22;30858;51.108;8.068;2022-08-30T00:38:31;13.60;99.90
45096;DHT22;30858;51.108;8.068;2022-08-30T00:40:57;13.60;99.90
45096;DHT22;30858;51.108;8.068;2022-08-30T00:43:26;13.60;99.90
45096;DHT22;30858;51.108;8.068;2022-08-30T00:45:52;13.50;99.90
45096;DHT22;30858;51.108;8.068;2022-08-30T00:48:18;13.50;99.90
45096;DHT22;30858;51.108;8.068;2022-08-30T00:50:46;13.50;99.90
45096;DHT22;30858;51.108;8.068;2022-08-30T00:53:16;13.50;99.90
45096;DHT22;30858;51.108;8.068;2022-08-30T00:55:43;13.40;99.90
45096;DHT22;30858;51.108;8.068;2022-08-30T00:58:13;13.40;99.90
45096;DHT22;30858;51.108;8.068;2022-08-30T01:00:41;13.40;99.90
45096;DHT22;30858;51.108;8.068;2022-08-30T01:03:07;13.40;99.90
45096;DHT22;30858;51.108;8.068;2022-08-30T01:05:35;13.40;99.90
45096;DHT22;30858;51.108;8.068;2022-08-30T01:08:03;13.50;99.90
45096;DHT22;30858;51.108;8.068;2022-08-30T01:10:29;13.50;99.90
45096;DHT22;30858;51.108;8.068;2022-08-30T01:12:54;13.40;99.90
45096;DHT22;30858;51.108;8.068;2022-08-30T01:15:20;13.40;99.90
45096;DHT22;30858;51.108;8.068;2022-08-30T01:17:47;13.30;99.90
45096;DHT22;30858;51.108;8.068;2022-08-30T01:20:19;13.40;99.90
45096;DHT22;30858;51.108;8.068;2022-08-30T01:25:18;13.30;99.90
45096;DHT22;30858;51.108;8.068;2022-08-30T01:27:51;13.30;99.90
45096;DHT22;30858;51.108;8.068;2022-08-30T01:30:18;13.30;99.90
45096;DHT22;30858;51.108;8.068;2022-08-30T01:32:45;13.30;99.90
45096;DHT22;30858;51.108;8.068;2022-08-30T01:35:14;13.30;99.90
45096;DHT22;30858;51.108;8.068;2022-08-30T01:37:40;13.40;99.90
45096;DHT22;30858;51.108;8.068;2022-08-30T01:40:07;13.50;99.90
45096;DHT22;30858;51.108;8.068;2022-08-30T01:42:34;13.50;99.90
45096;DHT22;30858;51.108;8.068;2022-08-30T01:44:59;13.50;99.90
45096;DHT22;30858;51.108;8.068;2022-08-30T01:47:25;13.50;99.90
45096;DHT22;30858;51.108;8.068;2022-08-30T01:49:52;13.50;99.90
45096;DHT22;30858;51.108;8.068;2022-08-30T01:52:18;13.60;99.90
45096;DHT22;30858;51.108;8.068;2022-08-30T01:54:45;13.60;99.90
45096;DHT22;30858;51.108;8.068;2022-08-30T01:57:14;13.50;99.90
45096;DHT22;30858;51.108;8.068;2022-08-30T01:59:42;13.40;99.90
45096;DHT22;30858;51.108;8.068;2022-08-30T02:02:12;13.40;99.90
45096;DHT22;30858;51.108;8.068;2022-08-30T02:04:38;13.50;99.90
45096;DHT22;30858;51.108;8.068;2022-08-30T02:07:03;13.60;99.90
45096;DHT22;30858;51.108;8.068;2022-08-30T02:09:29;13.50;99.90
45096;DHT22;30858;51.108;8.068;2022-08-30T02:11:55;13.50;99.90
45096;DHT22;30858;51.108;8.068;2022-08-30T02:14:20;13.50;99.90
45096;DHT22;30858;51.108;8.068;2022-08-30T02:16:46;13.40;99.90
45096;DHT22;30858;51.108;8.068;2022-08-30T02:19:12;13.40;99.90
45096;DHT22;30858;51.108;8.068;2022-08-30T02:21:38;13.50;99.90
45096;DHT22;30858;51.108;8.068;2022-08-30T02:24:04;13.50;99.90
45096;DHT22;30858;51.108;8.068;2022-08-30T02:26:29;13.50;99.90
45096;DHT22;30858;51.108;8.068;2022-08-30T02:28:55;13.50;99.90
45096;DHT22;30858;51.108;8.068;2022-08-30T02:31:21;13.50;99.90
45096;DHT22;30858;51.108;8.068;2022-08-30T02:33:49;13.40;99.90
45096;DHT22;30858;51.108;8.068;2022-08-30T02:36:16;13.40;99.90
45096;DHT22;30858;51.108;8.068;2022-08-30T02:38:42;13.40;99.90
45096;DHT22;30858;51.108;8.068;2022-08-30T02:41:07;13.40;99.90
45096;DHT22;30858;51.108;8.068;2022-08-30T02:43:33;13.40;99.90
45096;DHT22;30858;51.108;8.068;2022-08-30T02:45:59;13.40;99.90
45096;DHT22;30858;51.108;8.068;2022-08-30T02:48:24;13.30;99.90
45096;DHT22;30858;51.108;8.068;2022-08-30T02:50:51;13.30;99.90
45096;DHT22;30858;51.108;8.068;2022-08-30T02:53:17;13.30;99.90
45096;DHT22;30858;51.108;8.068;2022-08-30T02:55:45;13.30;99.90
45096;DHT22;30858;51.108;8.068;2022-08-30T02:58:11;13.30;99.90
45096;DHT22;30858;51.108;8.068;2022-08-30T03:00:37;13.30;99.90
45096;DHT22;30858;51.108;8.068;2022-08-30T03:03:03;13.30;99.90
45096;DHT22;30858;51.108;8.068;2022-08-30T03:05:30;13.20;99.90
45096;DHT22;30858;51.108;8.068;2022-08-30T03:07:56;13.30;99.90
45096;DHT22;30858;51.108;8.068;2022-08-30T03:10:21;13.30;99.90
45096;DHT22;30858;51.108;8.068;2022-08-30T03:12:47;13.30;99.90
45096;DHT22;30858;51.108;8.068;2022-08-30T03:15:13;13.30;99.90
45096;DHT22;30858;51.108;8.068;2022-08-30T03:17:40;13.30;99.90
45096;DHT22;30858;51.108;8.068;2022-08-30T03:20:07;13.20;99.90
45096;DHT22;30858;51.108;8.068;2022-08-30T03:22:33;13.30;99.90
45096;DHT22;30858;51.108;8.068;2022-08-30T03:24:58;13.30;99.90
45096;DHT22;30858;51.108;8.068;2022-08-30T03:27:26;13.30;99.90
45096;DHT22;30858;51.108;8.068;2022-08-30T03:29:52;13.30;99.90
45096;DHT22;30858;51.108;8.068;2022-08-30T03:32:18;13.30;99.90
45096;DHT22;30858;51.108;8.068;2022-08-30T03:34:44;13.30;99.90
45096;DHT22;30858;51.108;8.068;2022-08-30T03:37:10;13.30;99.90
45096;DHT22;30858;51.108;8.068;2022-08-30T03:39:35;13.40;99.90
45096;DHT22;30858;51.108;8.068;2022-08-30T03:42:01;13.40;99.90
45096;DHT22;30858;51.108;8.068;2022-08-30T03:44:27;13.40;99.90
45096;DHT22;30858;51.108;8.068;2022-08-30T03:46:52;13.40;99.90
45096;DHT22;30858;51.108;8.068;2022-08-30T03:49:19;13.40;99.90
45096;DHT22;30858;51.108;8.068;2022-08-30T03:51:45;13.30;99.90
45096;DHT22;30858;51.108;8.068;2022-08-30T03:54:12;13.30;99.90
45096;DHT22;30858;51.108;8.068;2022-08-30T03:56:37;13.30;99.90
45096;DHT22;30858;51.108;8.068;2022-08-30T03:59:03;13.20;99.90
45096;DHT22;30858;51.108;8.068;2022-08-30T04:01:29;13.20;99.90
45096;DHT22;30858;51.108;8.068;2022-08-30T04:03:55;13.20;99.90
45096;DHT22;30858;51.108;8.068;2022-08-30T04:06:21;13.20;99.90
45096;DHT22;30858;51.108;8.068;2022-08-30T04:08:46;13.20;99.90
45096;DHT22;30858;51.108;8.068;2022-08-30T04:11:12;13.10;99.90
45096;DHT22;30858;51.108;8.068;2022-08-30T04:13:39;13.10;99.90
45096;DHT22;30858;51.108;8.068;2022-08-30T04:16:05;13.20;99.90
45096;DHT22;30858;51.108;8.068;2022-08-30T04:18:30;13.20;99.90
45096;DHT22;30858;51.108;8.068;2022-08-30T04:20:56;13.20;99.90
45096;DHT22;30858;51.108;8.068;2022-08-30T04:23:21;13.20;99.90
45096;DHT22;30858;51.108;8.068;2022-08-30T04:25:47;13.10;99.90
45096;DHT22;30858;51.108;8.068;2022-08-30T04:28:13;13.10;99.90
45096;DHT22;30858;51.108;8.068;2022-08-30T04:30:41;13.10;99.90
45096;DHT22;30858;51.108;8.068;2022-08-30T04:33:07;13.10;99.90
45096;DHT22;30858;51.108;8.068;2022-08-30T04:35:32;13.10;99.90
45096;DHT22;30858;51.108;8.068;2022-08-30T04:37:58;13.10;99.90
45096;DHT22;30858;51.108;8.068;2022-08-30T04:40:24;13.10;99.90
45096;DHT22;30858;51.108;8.068;2022-08-30T04:42:50;13.10;99.90
45096;DHT22;30858;51.108;8.068;2022-08-30T04:45:19;13.10;99.90
45096;DHT22;30858;51.108;8.068;2022-08-30T04:47:46;13.10;99.90
45096;DHT22;30858;51.108;8.068;2022-08-30T04:50:14;13.10;99.90
45096;DHT22;30858;51.108;8.068;2022-08-30T04:52:40;13.10;99.90
45096;DHT22;30858;51.108;8.068;2022-08-30T04:55:06;13.10;99.90
45096;DHT22;30858;51.108;8.068;2022-08-30T04:57:33;13.10;99.90
45096;DHT22;30858;51.108;8.068;2022-08-30T04:59:59;13.10;99.90
45096;DHT22;30858;51.108;8.068;2022-08-30T05:02:24;13.20;99.90
45096;DHT22;30858;51.108;8.068;2022-08-30T05:04:50;13.20;99.90
45096;DHT22;30858;51.108;8.068;2022-08-30T05:07:34;13.20;99.90
45096;DHT22;30858;51.108;8.068;2022-08-30T05:10:00;13.10;99.90
45096;DHT22;30858;51.108;8.068;2022-08-30T05:12:26;13.20;99.90
45096;DHT22;30858;51.108;8.068;2022-08-30T05:14:52;13.30;99.90
45096;DHT22;30858;51.108;8.068;2022-08-30T05:17:17;13.30;99.90
45096;DHT22;30858;51.108;8.068;2022-08-30T05:19:43;13.20;99.90
45096;DHT22;30858;51.108;8.068;2022-08-30T05:22:09;13.30;99.90
45096;DHT22;30858;51.108;8.068;2022-08-30T05:24:35;13.30;99.90
45096;DHT22;30858;51.108;8.068;2022-08-30T05:27:01;13.30;99.90
45096;DHT22;30858;51.108;8.068;2022-08-30T05:29:26;13.30;99.90
45096;DHT22;30858;51.108;8.068;2022-08-30T05:31:52;13.30;99.90
45096;DHT22;30858;51.108;8.068;2022-08-30T05:34:17;13.40;99.90
45096;DHT22;30858;51.108;8.068;2022-08-30T05:36:43;13.30;99.90
45096;DHT22;30858;51.108;8.068;2022-08-30T05:39:09;13.30;99.90
45096;DHT22;30858;51.108;8.068;2022-08-30T05:41:36;13.40;99.90
45096;DHT22;30858;51.108;8.068;2022-08-30T05:44:03;13.50;99.90
45096;DHT22;30858;51.108;8.068;2022-08-30T05:46:30;13.50;99.90
45096;DHT22;30858;51.108;8.068;2022-08-30T05:48:58;13.60;99.90
45096;DHT22;30858;51.108;8.068;2022-08-30T05:51:26;13.70;99.90
45096;DHT22;30858;51.108;8.068;2022-08-30T05:53:57;13.70;99.90
45096;DHT22;30858;51.108;8.068;2022-08-30T05:56:30;13.70;99.90
45096;DHT22;30858;51.108;8.068;2022-08-30T05:58:56;13.70;99.90
45096;DHT22;30858;51.108;8.068;2022-08-30T06:01:28;13.60;99.90
45096;DHT22;30858;51.108;8.068;2022-08-30T06:03:55;13.70;99.90
45096;DHT22;30858;51.108;8.068;2022-08-30T06:06:21;13.70;99.90
45096;DHT22;30858;51.108;8.068;2022-08-30T06:08:48;13.70;99.90
45096;DHT22;30858;51.108;8.068;2022-08-30T06:11:16;13.80;99.90
45096;DHT22;30858;51.108;8.068;2022-08-30T06:13:43;13.90;99.90
45096;DHT22;30858;51.108;8.068;2022-08-30T06:16:14;14.00;99.90
45096;DHT22;30858;51.108;8.068;2022-08-30T06:18:40;14.20;99.90
45096;DHT22;30858;51.108;8.068;2022-08-30T06:21:07;14.20;99.90
45096;DHT22;30858;51.108;8.068;2022-08-30T06:23:33;14.30;99.90
45096;DHT22;30858;51.108;8.068;2022-08-30T06:26:03;14.40;99.90
45096;DHT22;30858;51.108;8.068;2022-08-30T06:28:29;14.40;99.90
45096;DHT22;30858;51.108;8.068;2022-08-30T06:30:55;14.40;99.90
45096;DHT22;30858;51.108;8.068;2022-08-30T06:33:20;14.50;99.90
45096;DHT22;30858;51.108;8.068;2022-08-30T06:35:46;14.60;99.90
45096;DHT22;30858;51.108;8.068;2022-08-30T06:38:12;14.70;99.90
45096;DHT22;30858;51.108;8.068;2022-08-30T06:40:37;14.80;99.90
45096;DHT22;30858;51.108;8.068;2022-08-30T06:43:03;15.00;99.90
45096;DHT22;30858;51.108;8.068;2022-08-30T06:45:28;15.20;99.90
45096;DHT22;30858;51.108;8.068;2022-08-30T06:47:55;15.40;99.90
45096;DHT22;30858;51.108;8.068;2022-08-30T06:50:22;15.50;99.90
45096;DHT22;30858;51.108;8.068;2022-08-30T06:52:50;15.60;99.90
45096;DHT22;30858;51.108;8.068;2022-08-30T06:55:17;15.80;99.90
45096;DHT22;30858;51.108;8.068;2022-08-30T06:57:43;16.00;99.90
45096;DHT22;30858;51.108;8.068;2022-08-30T07:00:12;16.30;99.90
45096;DHT22;30858;51.108;8.068;2022-08-30T07:02:38;16.40;99.90
45096;DHT22;30858;51.108;8.068;2022-08-30T07:05:05;16.60;99.90
45096;DHT22;30858;51.108;8.068;2022-08-30T07:07:32;16.70;99.90
45096;DHT22;30858;51.108;8.068;2022-08-30T07:09:58;17.00;99.90
45096;DHT22;30858;51.108;8.068;2022-08-30T07:12:25;17.20;99.90
45096;DHT22;30858;51.108;8.068;2022-08-30T07:14:51;17.40;99.90
45096;DHT22;30858;51.108;8.068;2022-08-30T07:17:16;17.60;99.90
45096;DHT22;30858;51.108;8.068;2022-08-30T07:20:02;17.70;99.90
45096;DHT22;30858;51.108;8.068;2022-08-30T07:22:28;18.00;99.90
45096;DHT22;30858;51.108;8.068;2022-08-30T07:24:53;18.00;99.90
45096;DHT22;30858;51.108;8.068;2022-08-30T07:27:19;18.10;99.90
45096;DHT22;30858;51.108;8.068;2022-08-30T07:29:45;18.20;99.90
45096;DHT22;30858;51.108;8.068;2022-08-30T07:32:12;18.40;99.90
45096;DHT22;30858;51.108;8.068;2022-08-30T07:34:38;18.60;99.90
45096;DHT22;30858;51.108;8.068;2022-08-30T07:37:03;18.70;99.90
45096;DHT22;30858;51.108;8.068;2022-08-30T07:39:29;18.90;99.90
45096;DHT22;30858;51.108;8.068;2022-08-30T07:41:54;19.10;99.90
45096;DHT22;30858;51.108;8.068;2022-08-30T07:44:20;19.40;99.90
45096;DHT22;30858;51.108;8.068;2022-08-30T07:46:45;19.50;99.90
45096;DHT22;30858;51.108;8.068;2022-08-30T07:49:11;19.70;99.90
45096;DHT22;30858;51.108;8.068;2022-08-30T07:51:37;19.80;99.90
45096;DHT22;30858;51.108;8.068;2022-08-30T07:54:03;19.90;99.90
45096;DHT22;30858;51.108;8.068;2022-08-30T07:56:29;20.10;99.90
45096;DHT22;30858;51.108;8.068;2022-08-30T07:58:54;20.10;99.90
45096;DHT22;30858;51.108;8.068;2022-08-30T08:01:21;20.20;99.90
45096;DHT22;30858;51.108;8.068;2022-08-30T08:03:47;20.10;99.90
45096;DHT22;30858;51.108;8.068;2022-08-30T08:06:17;20.30;99.90
45096;DHT22;30858;51.108;8.068;2022-08-30T08:08:43;20.40;99.90
45096;DHT22;30858;51.108;8.068;2022-08-30T08:11:16;20.50;99.90
45096;DHT22;30858;51.108;8.068;2022-08-30T08:13:44;20.60;99.90
45096;DHT22;30858;51.108;8.068;2022-08-30T08:16:10;20.80;99.90
45096;DHT22;30858;51.108;8.068;2022-08-30T08:18:35;20.90;99.90
45096;DHT22;30858;51.108;8.068;2022-08-30T08:21:01;21.00;99.90
45096;DHT22;30858;51.108;8.068;2022-08-30T08:23:27;21.10;99.90
45096;DHT22;30858;51.108;8.068;2022-08-30T08:25:53;21.20;99.90
45096;DHT22;30858;51.108;8.068;2022-08-30T08:28:19;21.40;99.90
45096;DHT22;30858;51.108;8.068;2022-08-30T08:30:45;21.70;99.90
45096;DHT22;30858;51.108;8.068;2022-08-30T08:33:10;21.90;99.90
45096;DHT22;30858;51.108;8.068;2022-08-30T08:35:38;22.10;99.90
45096;DHT22;30858;51.108;8.068;2022-08-30T08:38:03;22.30;99.90
45096;DHT22;30858;51.108;8.068;2022-08-30T08:40:34;22.70;99.90
45096;DHT22;30858;51.108;8.068;2022-08-30T08:43:11;22.80;99.90
45096;DHT22;30858;51.108;8.068;2022-08-30T08:48:45;23.40;99.90
45096;DHT22;30858;51.108;8.068;2022-08-30T08:51:16;23.90;99.90
45096;DHT22;30858;51.108;8.068;2022-08-30T08:54:09;24.10;99.90
45096;DHT22;30858;51.108;8.068;2022-08-30T08:56:35;24.60;99.90
45096;DHT22;30858;51.108;8.068;2022-08-30T08:59:04;24.80;99.90
45096;DHT22;30858;51.108;8.068;2022-08-30T09:01:31;24.80;99.90
45096;DHT22;30858;51.108;8.068;2022-08-30T09:04:01;25.00;99.90
45096;DHT22;30858;51.108;8.068;2022-08-30T09:06:38;24.80;99.90
45096;DHT22;30858;51.108;8.068;2022-08-30T09:09:05;24.70;99.90
45096;DHT22;30858;51.108;8.068;2022-08-30T09:11:36;25.00;99.90
45096;DHT22;30858;51.108;8.068;2022-08-30T09:14:05;24.80;99.90
45096;DHT22;30858;51.108;8.068;2022-08-30T09:16:56;24.20;99.90
45096;DHT22;30858;51.108;8.068;2022-08-30T09:19:44;24.60;99.90
45096;DHT22;30858;51.108;8.068;2022-08-30T09:22:52;24.80;99.90
45096;DHT22;30858;51.108;8.068;2022-08-30T09:27:28;25.30;99.90
45096;DHT22;30858;51.108;8.068;2022-08-30T09:30:17;25.20;99.90
45096;DHT22;30858;51.108;8.068;2022-08-30T09:33:19;25.50;99.90
45096;DHT22;30858;51.108;8.068;2022-08-30T09:35:47;24.90;99.90
45096;DHT22;30858;51.108;8.068;2022-08-30T09:38:30;25.30;99.90
45096;DHT22;30858;51.108;8.068;2022-08-30T09:41:24;25.80;99.90
45096;DHT22;30858;51.108;8.068;2022-08-30T09:44:06;26.40;99.90
45096;DHT22;30858;51.108;8.068;2022-08-30T09:46:33;26.70;99.50
45096;DHT22;30858;51.108;8.068;2022-08-30T09:48:58;27.10;99.20
45096;DHT22;30858;51.108;8.068;2022-08-30T09:51:42;26.80;98.70
45096;DHT22;30858;51.108;8.068;2022-08-30T09:54:20;26.90;98.90
45096;DHT22;30858;51.108;8.068;2022-08-30T10:10:29;26.10;98.60
45096;DHT22;30858;51.108;8.068;2022-08-30T10:16:12;26.10;99.60
45096;DHT22;30858;51.108;8.068;2022-08-30T10:21:53;27.00;98.50
45096;DHT22;30858;51.108;8.068;2022-08-30T10:24:27;27.40;98.20
45096;DHT22;30858;51.108;8.068;2022-08-30T10:27:06;27.90;98.00
45096;DHT22;30858;51.108;8.068;2022-08-30T10:32:32;28.30;96.10
45096;DHT22;30858;51.108;8.068;2022-08-30T10:35:08;28.20;96.30
45096;DHT22;30858;51.108;8.068;2022-08-30T10:37:40;28.30;95.80
45096;DHT22;30858;51.108;8.068;2022-08-30T10:40:30;27.90;96.30
45096;DHT22;30858;51.108;8.068;2022-08-30T10:43:23;27.60;95.60
45096;DHT22;30858;51.108;8.068;2022-08-30T10:45:51;27.20;96.00
45096;DHT22;30858;51.108;8.068;2022-08-30T10:48:24;27.40;96.00
45096;DHT22;30858;51.108;8.068;2022-08-30T10:50:54;27.30;95.80
45096;DHT22;30858;51.108;8.068;2022-08-30T10:53:33;27.00;96.20
45096;DHT22;30858;51.108;8.068;2022-08-30T10:56:10;27.60;95.90
45096;DHT22;30858;51.108;8.068;2022-08-30T10:58:40;27.20;95.20
45096;DHT22;30858;51.108;8.068;2022-08-30T11:10:19;28.90;93.60
45096;DHT22;30858;51.108;8.068;2022-08-30T11:13:00;28.70;93.00
45096;DHT22;30858;51.108;8.068;2022-08-30T11:15:30;28.60;93.20
45096;DHT22;30858;51.108;8.068;2022-08-30T11:20:46;28.70;93.00
45096;DHT22;30858;51.108;8.068;2022-08-30T11:23:19;28.50;93.00
45096;DHT22;30858;51.108;8.068;2022-08-30T11:26:05;28.40;93.60
45096;DHT22;30858;51.108;8.068;2022-08-30T11:33:46;28.60;92.20
45096;DHT22;30858;51.108;8.068;2022-08-30T11:39:06;28.10;92.00
45096;DHT22;30858;51.108;8.068;2022-08-30T11:46:47;27.30;92.70
45096;DHT22;30858;51.108;8.068;2022-08-30T11:52:16;27.70;93.30
45096;DHT22;30858;51.108;8.068;2022-08-30T11:58:08;27.50;93.10
45096;DHT22;30858;51.108;8.068;2022-08-30T12:00:40;27.30;93.10
45096;DHT22;30858;51.108;8.068;2022-08-30T12:16:21;28.60;92.40
45096;DHT22;30858;51.108;8.068;2022-08-30T12:18:50;28.70;92.00
45096;DHT22;30858;51.108;8.068;2022-08-30T12:26:40;29.10;91.70
45096;DHT22;30858;51.108;8.068;2022-08-30T12:29:26;29.10;91.40
45096;DHT22;30858;51.108;8.068;2022-08-30T12:32:03;29.40;91.60
45096;DHT22;30858;51.108;8.068;2022-08-30T12:34:36;29.10;91.00
45096;DHT22;30858;51.108;8.068;2022-08-30T12:37:28;28.60;90.90
45096;DHT22;30858;51.108;8.068;2022-08-30T12:40:03;28.40;91.40
45096;DHT22;30858;51.108;8.068;2022-08-30T12:42:34;28.40;91.00
45096;DHT22;30858;51.108;8.068;2022-08-30T12:45:10;28.50;91.50
45096;DHT22;30858;51.108;8.068;2022-08-30T12:47:44;28.60;91.40
45096;DHT22;30858;51.108;8.068;2022-08-30T12:50:14;28.30;90.80
45096;DHT22;30858;51.108;8.068;2022-08-30T12:52:43;28.60;91.50
45096;DHT22;30858;51.108;8.068;2022-08-30T12:55:24;29.10;90.90
45096;DHT22;30858;51.108;8.068;2022-08-30T12:58:05;29.20;90.30
45096;DHT22;30858;51.108;8.068;2022-08-30T13:00:36;30.10;90.00
45096;DHT22;30858;51.108;8.068;2022-08-30T13:03:05;30.60;89.20
45096;DHT22;30858;51.108;8.068;2022-08-30T13:05:47;30.80;88.70
45096;DHT22;30858;51.108;8.068;2022-08-30T13:08:24;30.40;87.70
45096;DHT22;30858;51.108;8.068;2022-08-30T13:13:48;29.30;88.80
45096;DHT22;30858;51.108;8.068;2022-08-30T13:18:43;28.10;90.20
45096;DHT22;30858;51.108;8.068;2022-08-30T13:21:17;28.10;90.90
45096;DHT22;30858;51.108;8.068;2022-08-30T13:23:43;27.80;90.50
45096;DHT22;30858;51.108;8.068;2022-08-30T13:26:08;27.60;91.10
45096;DHT22;30858;51.108;8.068;2022-08-30T13:28:55;27.50;91.40
45096;DHT22;30858;51.108;8.068;2022-08-30T13:31:22;27.50;91.80
45096;DHT22;30858;51.108;8.068;2022-08-30T13:33:48;27.40;91.40
45096;DHT22;30858;51.108;8.068;2022-08-30T13:36:17;27.30;91.20
45096;DHT22;30858;51.108;8.068;2022-08-30T13:38:44;27.30;91.90
45096;DHT22;30858;51.108;8.068;2022-08-30T13:41:09;27.40;91.50
45096;DHT22;30858;51.108;8.068;2022-08-30T13:43:35;27.70;92.00
45096;DHT22;30858;51.108;8.068;2022-08-30T13:46:00;27.70;91.70
45096;DHT22;30858;51.108;8.068;2022-08-30T13:48:26;27.90;91.70
45096;DHT22;30858;51.108;8.068;2022-08-30T13:50:52;28.20;90.80
45096;DHT22;30858;51.108;8.068;2022-08-30T13:53:18;28.00;90.50
45096;DHT22;30858;51.108;8.068;2022-08-30T13:55:44;27.90;90.80
45096;DHT22;30858;51.108;8.068;2022-08-30T13:58:10;27.90;90.50
45096;DHT22;30858;51.108;8.068;2022-08-30T14:00:36;27.80;90.80
45096;DHT22;30858;51.108;8.068;2022-08-30T14:03:01;27.60;91.00
45096;DHT22;30858;51.108;8.068;2022-08-30T14:05:34;27.50;91.40
45096;DHT22;30858;51.108;8.068;2022-08-30T14:08:00;27.30;91.90
45096;DHT22;30858;51.108;8.068;2022-08-30T14:10:27;27.10;91.30
45096;DHT22;30858;51.108;8.068;2022-08-30T14:12:54;26.70;91.40
45096;DHT22;30858;51.108;8.068;2022-08-30T14:15:19;26.70;92.60
45096;DHT22;30858;51.108;8.068;2022-08-30T14:17:45;26.90;91.90
45096;DHT22;30858;51.108;8.068;2022-08-30T14:20:11;27.80;91.90
45096;DHT22;30858;51.108;8.068;2022-08-30T14:22:37;28.30;90.60
45096;DHT22;30858;51.108;8.068;2022-08-30T14:25:03;29.20;91.00
45096;DHT22;30858;51.108;8.068;2022-08-30T14:27:29;29.50;90.40
45096;DHT22;30858;51.108;8.068;2022-08-30T14:29:55;29.60;90.80
45096;DHT22;30858;51.108;8.068;2022-08-30T14:32:21;30.00;89.30
45096;DHT22;30858;51.108;8.068;2022-08-30T14:34:46;30.20;89.00
45096;DHT22;30858;51.108;8.068;2022-08-30T14:37:12;30.00;89.40
45096;DHT22;30858;51.108;8.068;2022-08-30T14:39:38;29.60;88.30
45096;DHT22;30858;51.108;8.068;2022-08-30T14:42:04;27.90;89.60
45096;DHT22;30858;51.108;8.068;2022-08-30T14:44:29;27.80;90.40
45096;DHT22;30858;51.108;8.068;2022-08-30T14:46:55;28.00;90.80
45096;DHT22;30858;51.108;8.068;2022-08-30T14:49:21;28.00;91.10
45096;DHT22;30858;51.108;8.068;2022-08-30T14:51:47;28.20;91.10
45096;DHT22;30858;51.108;8.068;2022-08-30T14:54:14;28.70;90.90
45096;DHT22;30858;51.108;8.068;2022-08-30T14:56:40;29.20;91.00
45096;DHT22;30858;51.108;8.068;2022-08-30T14:59:06;29.80;90.00
45096;DHT22;30858;51.108;8.068;2022-08-30T15:01:32;30.00;89.40
45096;DHT22;30858;51.108;8.068;2022-08-30T15:03:58;30.20;88.40
45096;DHT22;30858;51.108;8.068;2022-08-30T15:06:23;30.00;88.20
45096;DHT22;30858;51.108;8.068;2022-08-30T15:08:49;29.90;87.60
45096;DHT22;30858;51.108;8.068;2022-08-30T15:11:17;29.20;88.20
45096;DHT22;30858;51.108;8.068;2022-08-30T15:13:44;28.50;89.50
45096;DHT22;30858;51.108;8.068;2022-08-30T15:16:18;28.10;90.40
45096;DHT22;30858;51.108;8.068;2022-08-30T15:18:44;28.30;90.70
45096;DHT22;30858;51.108;8.068;2022-08-30T15:21:10;28.70;90.10
45096;DHT22;30858;51.108;8.068;2022-08-30T15:23:37;28.70;90.80
45096;DHT22;30858;51.108;8.068;2022-08-30T15:26:03;28.80;91.10
45096;DHT22;30858;51.108;8.068;2022-08-30T15:28:29;28.90;90.50
45096;DHT22;30858;51.108;8.068;2022-08-30T15:30:55;28.40;91.00
45096;DHT22;30858;51.108;8.068;2022-08-30T15:33:23;28.00;91.70
45096;DHT22;30858;51.108;8.068;2022-08-30T15:35:50;28.10;91.00
45096;DHT22;30858;51.108;8.068;2022-08-30T15:38:17;28.50;91.50
45096;DHT22;30858;51.108;8.068;2022-08-30T15:40:44;28.60;91.10
45096;DHT22;30858;51.108;8.068;2022-08-30T15:43:10;28.20;91.30
45096;DHT22;30858;51.108;8.068;2022-08-30T15:45:35;29.00;91.10
45096;DHT22;30858;51.108;8.068;2022-08-30T15:48:01;29.40;90.80
45096;DHT22;30858;51.108;8.068;2022-08-30T15:50:27;29.70;90.50
45096;DHT22;30858;51.108;8.068;2022-08-30T15:52:52;29.90;90.00
45096;DHT22;30858;51.108;8.068;2022-08-30T15:55:18;29.70;89.70
45096;DHT22;30858;51.108;8.068;2022-08-30T15:57:43;29.60;90.00
45096;DHT22;30858;51.108;8.068;2022-08-30T16:00:09;29.90;89.80
45096;DHT22;30858;51.108;8.068;2022-08-30T16:02:36;29.90;88.50
45096;DHT22;30858;51.108;8.068;2022-08-30T16:05:03;30.00;88.50
45096;DHT22;30858;51.108;8.068;2022-08-30T16:07:29;29.30;89.00
45096;DHT22;30858;51.108;8.068;2022-08-30T16:09:54;28.90;90.10
45096;DHT22;30858;51.108;8.068;2022-08-30T16:12:20;28.40;90.20
45096;DHT22;30858;51.108;8.068;2022-08-30T16:14:45;27.50;91.20
45096;DHT22;30858;51.108;8.068;2022-08-30T16:17:11;28.20;91.10
45096;DHT22;30858;51.108;8.068;2022-08-30T16:19:37;28.80;90.50
45096;DHT22;30858;51.108;8.068;2022-08-30T16:22:03;29.00;90.40
45096;DHT22;30858;51.108;8.068;2022-08-30T16:24:29;29.10;90.40
45096;DHT22;30858;51.108;8.068;2022-08-30T16:26:54;27.90;90.90
45096;DHT22;30858;51.108;8.068;2022-08-30T16:29:20;27.90;91.10
45096;DHT22;30858;51.108;8.068;2022-08-30T16:31:46;27.90;91.20
45096;DHT22;30858;51.108;8.068;2022-08-30T16:34:17;27.60;91.40
45096;DHT22;30858;51.108;8.068;2022-08-30T16:36:44;26.80;92.00
45096;DHT22;30858;51.108;8.068;2022-08-30T16:39:09;26.10;92.90
45096;DHT22;30858;51.108;8.068;2022-08-30T16:41:37;26.10;93.40
45096;DHT22;30858;51.108;8.068;2022-08-30T16:44:04;26.20;93.30
45096;DHT22;30858;51.108;8.068;2022-08-30T16:46:29;26.50;93.00
45096;DHT22;30858;51.108;8.068;2022-08-30T16:48:58;26.20;93.30
45096;DHT22;30858;51.108;8.068;2022-08-30T16:51:26;25.70;93.90
45096;DHT22;30858;51.108;8.068;2022-08-30T16:53:57;25.50;94.20
45096;DHT22;30858;51.108;8.068;2022-08-30T16:56:25;25.30;94.50
45096;DHT22;30858;51.108;8.068;2022-08-30T16:58:51;25.00;94.80
45096;DHT22;30858;51.108;8.068;2022-08-30T17:01:20;25.00;95.10
45096;DHT22;30858;51.108;8.068;2022-08-30T17:03:47;25.00;95.10